»·PEaware :: N12529 KSMX-KSBA

N12529 :: KSMX-KSBA

FLIGHT INFORMATION

Flight Status: Arrived
Operator: Privately registered:
United States
More flights under this callsign
Pilot: Eduardo Elias G. (24838)
Aircraft: CESSNA 172 SKYHAWK
(C172)
More flights by this aircraft type
Origin: KSMX Santa Maria Pub/Capt Hancock
United States
Destination: KSBA Santa Barbara Mun
United States
More flights between these airports :: More routes between these airports
Route: +GVO HABUT
File this flight plan on PilotEdge
Remarks:
Altitude:
(Current/Filed)
7,000ft
Speed:
(Current/Filed)
135kts
Departed: 21-Oct-20 08:36 PM
Arrived: 21-Oct-20 09:05 PM
Distance/Time
Traveled:
41nm/0:28
Distance/Time
To Go:
Arrived

Flight Plot

Page will automatically refresh every two minutes.


Map Options




Map Legend


Flown Route
Filed Route
Departure Airport
Arrival Airport
Navaid (VOR, NDB)
Fix

Horizontal Profiles

Position Reports

Time Latitude Longitude Heading Altitude Ground
Speed
21-Oct-20 20:11 34.896554 -120.445699 314 265ft 0kts
21-Oct-20 20:12 34.896554 -120.445699 314 265ft 0kts
21-Oct-20 20:13 34.896554 -120.445699 314 265ft 0kts
21-Oct-20 20:14 34.896554 -120.445699 314 265ft 0kts
21-Oct-20 20:15 34.896554 -120.445699 314 265ft 0kts
21-Oct-20 20:16 34.896554 -120.445699 314 265ft 0kts
21-Oct-20 20:17 34.896554 -120.445699 314 265ft 0kts
21-Oct-20 20:18 34.896554 -120.445699 314 265ft 0kts
21-Oct-20 20:19 34.896554 -120.445699 314 265ft 0kts
21-Oct-20 20:20 34.896554 -120.445699 314 265ft 0kts
21-Oct-20 20:21 34.896554 -120.445699 314 265ft 0kts
21-Oct-20 20:22 34.896554 -120.445699 314 265ft 0kts
21-Oct-20 20:23 34.896554 -120.445699 314 265ft 0kts
21-Oct-20 20:24 34.896554 -120.445699 314 265ft 0kts
21-Oct-20 20:25 34.896554 -120.445699 314 265ft 0kts
21-Oct-20 20:26 34.896554 -120.445699 314 265ft 0kts
21-Oct-20 20:27 34.896554 -120.445699 314 265ft 0kts
21-Oct-20 20:28 34.896554 -120.445699 314 265ft 0kts
21-Oct-20 20:29 34.896590 -120.445760 298 265ft 1kts
21-Oct-20 20:30 34.896936 -120.447388 233 265ft 7kts
21-Oct-20 20:31 34.894941 -120.445948 135 265ft 11kts
21-Oct-20 20:32 34.893559 -120.445212 179 265ft 0kts
21-Oct-20 20:33 34.893560 -120.445212 180 265ft 0kts
21-Oct-20 20:34 34.892842 -120.445975 308 265ft 8kts
21-Oct-20 20:35 34.903511 -120.458875 319 592ft 81kts
21-Oct-20 20:36 34.918247 -120.477364 286 1444ft 73kts
21-Oct-20 20:37 34.905358 -120.476282 105 2193ft 76kts
21-Oct-20 20:38 34.891583 -120.448985 118 2776ft 95kts
21-Oct-20 20:39 34.873938 -120.423809 135 3465ft 97kts
21-Oct-20 20:40 34.852665 -120.403707 155 4131ft 98kts
21-Oct-20 20:41 34.830291 -120.385116 138 4824ft 97kts
21-Oct-20 20:42 34.810311 -120.362433 136 5443ft 100kts
21-Oct-20 20:43 34.791921 -120.337187 122 6068ft 99kts
21-Oct-20 20:44 34.770446 -120.315615 148 6646ft 100kts
21-Oct-20 20:45 34.747140 -120.294297 143 7052ft 115kts
21-Oct-20 20:46 34.718288 -120.269518 145 7133ft 132kts
21-Oct-20 20:47 34.689534 -120.240006 136 7004ft 145kts
21-Oct-20 20:48 34.656008 -120.213419 142 6543ft 142kts
21-Oct-20 20:49 34.624412 -120.184724 143 6051ft 144kts
21-Oct-20 20:50 34.593746 -120.154907 134 5629ft 140kts
21-Oct-20 20:51 34.567033 -120.119994 126 5184ft 139kts
21-Oct-20 20:52 34.537603 -120.090484 162 4871ft 134kts
21-Oct-20 20:53 34.502071 -120.086345 180 4618ft 131kts
21-Oct-20 20:54 34.466641 -120.088684 186 4149ft 125kts
21-Oct-20 20:55 34.431161 -120.084175 178 3647ft 127kts
21-Oct-20 20:56 34.408332 -120.066948 67 3334ft 112kts
21-Oct-20 20:57 34.419294 -120.032877 62 3130ft 101kts
21-Oct-20 20:58 34.420077 -119.993326 81 2494ft 105kts
21-Oct-20 20:59 34.424717 -119.959231 86 1988ft 73kts
21-Oct-20 21:00 34.426519 -119.930987 70 1328ft 71kts
21-Oct-20 21:01 34.428828 -119.910011 89 934ft 62kts
21-Oct-20 21:02 34.427382 -119.886698 92 344ft 64kts
21-Oct-20 21:03 34.427235 -119.864675 86 248ft 66kts
21-Oct-20 21:04 34.427693 -119.846432 77 14ft 29kts
21-Oct-20 21:05 34.427183 -119.841542 167 14ft 11kts
21-Oct-20 21:06 34.426792 -119.841453 185 14ft 0kts
21-Oct-20 21:07 34.426606 -119.842794 268 14ft 9kts
21-Oct-20 21:08 34.426523 -119.846976 269 14ft 14kts
21-Oct-20 21:09 34.426406 -119.851599 269 14ft 12kts
21-Oct-20 21:10 34.426465 -119.854152 310 14ft 0kts
21-Oct-20 21:11 34.426465 -119.854152 310 14ft 0kts
21-Oct-20 21:12 34.426465 -119.854152 310 14ft 0kts
21-Oct-20 21:13 34.426465 -119.854152 310 14ft 0kts
21-Oct-20 21:14 34.426465 -119.854152 310 14ft 0kts
21-Oct-20 21:15 34.426465 -119.854152 310 14ft 0kts
21-Oct-20 21:16 34.426465 -119.854152 310 14ft 0kts

Navigation Log

Ident Type
Flight plan parsing failed, navigation log unavailable